sensor_id;sensor_type;location;lat;lon;timestamp;P1;durP1;ratioP1;P2;durP2;ratioP2
68273;SDS011;55104;47.356;19.448;2023-08-08T00:01:45;1.60;;;0.45;;
68273;SDS011;55104;47.356;19.448;2023-08-08T00:04:48;1.23;;;0.30;;
68273;SDS011;55104;47.356;19.448;2023-08-08T00:07:51;0.83;;;0.30;;
68273;SDS011;55104;47.356;19.448;2023-08-08T00:10:53;4.07;;;0.60;;
68273;SDS011;55104;47.356;19.448;2023-08-08T00:13:56;1.35;;;0.30;;
68273;SDS011;55104;47.356;19.448;2023-08-08T00:16:58;1.52;;;0.40;;
68273;SDS011;55104;47.356;19.448;2023-08-08T00:20:00;1.65;;;0.35;;
68273;SDS011;55104;47.356;19.448;2023-08-08T00:23:02;2.30;;;0.53;;
68273;SDS011;55104;47.356;19.448;2023-08-08T00:26:04;2.42;;;0.50;;
68273;SDS011;55104;47.356;19.448;2023-08-08T00:29:06;2.20;;;0.50;;
68273;SDS011;55104;47.356;19.448;2023-08-08T00:32:08;0.90;;;0.30;;
68273;SDS011;55104;47.356;19.448;2023-08-08T00:35:11;1.70;;;0.40;;
68273;SDS011;55104;47.356;19.448;2023-08-08T00:38:13;1.70;;;0.33;;
68273;SDS011;55104;47.356;19.448;2023-08-08T00:41:15;1.58;;;0.40;;
68273;SDS011;55104;47.356;19.448;2023-08-08T00:44:17;1.73;;;0.40;;
68273;SDS011;55104;47.356;19.448;2023-08-08T00:47:19;2.67;;;0.30;;
68273;SDS011;55104;47.356;19.448;2023-08-08T00:50:21;4.10;;;0.32;;
68273;SDS011;55104;47.356;19.448;2023-08-08T00:53:24;3.30;;;0.80;;
68273;SDS011;55104;47.356;19.448;2023-08-08T00:56:27;1.63;;;0.40;;
68273;SDS011;55104;47.356;19.448;2023-08-08T00:59:30;2.00;;;0.40;;
68273;SDS011;55104;47.356;19.448;2023-08-08T01:02:32;1.45;;;0.32;;
68273;SDS011;55104;47.356;19.448;2023-08-08T01:05:37;1.55;;;0.30;;
68273;SDS011;55104;47.356;19.448;2023-08-08T01:08:51;2.20;;;0.97;;
68273;SDS011;55104;47.356;19.448;2023-08-08T01:11:59;1.85;;;0.40;;
68273;SDS011;55104;47.356;19.448;2023-08-08T01:15:04;1.02;;;0.30;;
68273;SDS011;55104;47.356;19.448;2023-08-08T01:18:10;1.02;;;0.30;;
68273;SDS011;55104;47.356;19.448;2023-08-08T01:21:13;1.52;;;0.40;;
68273;SDS011;55104;47.356;19.448;2023-08-08T01:24:18;1.70;;;0.40;;
68273;SDS011;55104;47.356;19.448;2023-08-08T01:27:25;1.75;;;0.30;;
68273;SDS011;55104;47.356;19.448;2023-08-08T01:30:27;1.63;;;0.40;;
68273;SDS011;55104;47.356;19.448;2023-08-08T01:33:29;2.42;;;0.55;;
68273;SDS011;55104;47.356;19.448;2023-08-08T01:36:42;2.72;;;0.30;;
68273;SDS011;55104;47.356;19.448;2023-08-08T01:39:59;1.63;;;0.40;;
68273;SDS011;55104;47.356;19.448;2023-08-08T01:43:06;2.45;;;0.50;;
68273;SDS011;55104;47.356;19.448;2023-08-08T01:46:08;1.45;;;0.40;;
68273;SDS011;55104;47.356;19.448;2023-08-08T01:49:11;3.67;;;0.45;;
68273;SDS011;55104;47.356;19.448;2023-08-08T01:52:13;3.58;;;0.60;;
68273;SDS011;55104;47.356;19.448;2023-08-08T01:55:16;2.23;;;0.50;;
68273;SDS011;55104;47.356;19.448;2023-08-08T01:58:18;1.58;;;0.40;;
68273;SDS011;55104;47.356;19.448;2023-08-08T02:01:21;5.70;;;0.68;;
68273;SDS011;55104;47.356;19.448;2023-08-08T02:04:23;1.23;;;0.32;;
68273;SDS011;55104;47.356;19.448;2023-08-08T02:07:26;2.28;;;0.40;;
68273;SDS011;55104;47.356;19.448;2023-08-08T02:10:28;1.97;;;0.40;;
68273;SDS011;55104;47.356;19.448;2023-08-08T02:13:30;2.15;;;0.40;;
68273;SDS011;55104;47.356;19.448;2023-08-08T02:16:32;1.60;;;0.38;;
68273;SDS011;55104;47.356;19.448;2023-08-08T02:19:34;3.00;;;0.40;;
68273;SDS011;55104;47.356;19.448;2023-08-08T02:22:36;2.78;;;0.50;;
68273;SDS011;55104;47.356;19.448;2023-08-08T02:25:38;1.53;;;0.40;;
68273;SDS011;55104;47.356;19.448;2023-08-08T02:28:40;2.00;;;0.45;;
68273;SDS011;55104;47.356;19.448;2023-08-08T02:31:43;2.88;;;0.60;;
68273;SDS011;55104;47.356;19.448;2023-08-08T02:34:45;2.75;;;0.60;;
68273;SDS011;55104;47.356;19.448;2023-08-08T02:37:47;1.85;;;0.43;;
68273;SDS011;55104;47.356;19.448;2023-08-08T02:40:49;3.20;;;0.50;;
68273;SDS011;55104;47.356;19.448;2023-08-08T02:43:51;4.18;;;0.65;;
68273;SDS011;55104;47.356;19.448;2023-08-08T02:46:54;3.53;;;0.63;;
68273;SDS011;55104;47.356;19.448;2023-08-08T02:49:56;2.28;;;0.60;;
68273;SDS011;55104;47.356;19.448;2023-08-08T02:52:58;2.22;;;0.55;;
68273;SDS011;55104;47.356;19.448;2023-08-08T02:56:06;2.40;;;0.50;;
68273;SDS011;55104;47.356;19.448;2023-08-08T02:59:13;3.80;;;0.55;;
68273;SDS011;55104;47.356;19.448;2023-08-08T03:02:15;2.67;;;0.47;;
68273;SDS011;55104;47.356;19.448;2023-08-08T03:05:17;2.88;;;0.50;;
68273;SDS011;55104;47.356;19.448;2023-08-08T03:08:19;1.73;;;0.47;;
68273;SDS011;55104;47.356;19.448;2023-08-08T03:11:21;1.87;;;0.50;;
68273;SDS011;55104;47.356;19.448;2023-08-08T03:14:23;3.17;;;0.68;;
68273;SDS011;55104;47.356;19.448;2023-08-08T03:17:26;5.15;;;0.60;;
68273;SDS011;55104;47.356;19.448;2023-08-08T03:20:29;3.30;;;0.80;;
68273;SDS011;55104;47.356;19.448;2023-08-08T03:23:32;2.05;;;0.52;;
68273;SDS011;55104;47.356;19.448;2023-08-08T03:26:34;2.27;;;0.50;;
68273;SDS011;55104;47.356;19.448;2023-08-08T03:29:36;2.88;;;0.50;;
68273;SDS011;55104;47.356;19.448;2023-08-08T03:32:39;3.28;;;0.70;;
68273;SDS011;55104;47.356;19.448;2023-08-08T03:35:42;3.00;;;0.68;;
68273;SDS011;55104;47.356;19.448;2023-08-08T03:38:46;3.40;;;0.75;;
68273;SDS011;55104;47.356;19.448;2023-08-08T03:41:49;3.27;;;0.70;;
68273;SDS011;55104;47.356;19.448;2023-08-08T03:44:50;3.65;;;0.80;;
68273;SDS011;55104;47.356;19.448;2023-08-08T03:47:53;3.88;;;0.60;;
68273;SDS011;55104;47.356;19.448;2023-08-08T03:50:55;3.47;;;0.70;;
68273;SDS011;55104;47.356;19.448;2023-08-08T03:53:57;2.80;;;0.60;;
68273;SDS011;55104;47.356;19.448;2023-08-08T03:56:59;3.23;;;0.70;;
68273;SDS011;55104;47.356;19.448;2023-08-08T04:00:03;3.00;;;0.60;;
68273;SDS011;55104;47.356;19.448;2023-08-08T04:03:14;3.10;;;0.70;;
68273;SDS011;55104;47.356;19.448;2023-08-08T04:06:16;3.30;;;0.63;;
68273;SDS011;55104;47.356;19.448;2023-08-08T04:09:19;5.05;;;0.70;;
68273;SDS011;55104;47.356;19.448;2023-08-08T04:12:21;7.00;;;0.70;;
68273;SDS011;55104;47.356;19.448;2023-08-08T04:15:23;2.22;;;0.60;;
68273;SDS011;55104;47.356;19.448;2023-08-08T04:18:25;3.25;;;0.60;;
68273;SDS011;55104;47.356;19.448;2023-08-08T04:21:27;3.08;;;0.63;;
68273;SDS011;55104;47.356;19.448;2023-08-08T04:24:30;4.47;;;0.82;;
68273;SDS011;55104;47.356;19.448;2023-08-08T04:27:32;2.10;;;0.53;;
68273;SDS011;55104;47.356;19.448;2023-08-08T04:30:34;3.72;;;0.70;;
68273;SDS011;55104;47.356;19.448;2023-08-08T04:33:37;2.05;;;0.57;;
68273;SDS011;55104;47.356;19.448;2023-08-08T04:36:39;5.20;;;0.70;;
68273;SDS011;55104;47.356;19.448;2023-08-08T04:39:41;2.75;;;0.65;;
68273;SDS011;55104;47.356;19.448;2023-08-08T04:42:44;2.47;;;0.60;;
68273;SDS011;55104;47.356;19.448;2023-08-08T04:45:46;3.08;;;0.57;;
68273;SDS011;55104;47.356;19.448;2023-08-08T04:48:48;3.22;;;0.73;;
68273;SDS011;55104;47.356;19.448;2023-08-08T04:51:50;2.88;;;0.70;;
68273;SDS011;55104;47.356;19.448;2023-08-08T04:54:52;2.75;;;0.73;;
68273;SDS011;55104;47.356;19.448;2023-08-08T04:57:54;3.07;;;0.40;;
68273;SDS011;55104;47.356;19.448;2023-08-08T05:00:56;3.30;;;0.75;;
68273;SDS011;55104;47.356;19.448;2023-08-08T05:03:58;3.65;;;0.88;;
68273;SDS011;55104;47.356;19.448;2023-08-08T05:07:00;3.33;;;0.80;;
68273;SDS011;55104;47.356;19.448;2023-08-08T05:10:03;3.80;;;0.63;;
68273;SDS011;55104;47.356;19.448;2023-08-08T05:13:06;3.10;;;0.70;;
68273;SDS011;55104;47.356;19.448;2023-08-08T05:16:08;3.65;;;0.70;;
68273;SDS011;55104;47.356;19.448;2023-08-08T05:19:10;2.58;;;0.63;;
68273;SDS011;55104;47.356;19.448;2023-08-08T05:22:12;3.28;;;0.90;;
68273;SDS011;55104;47.356;19.448;2023-08-08T05:25:14;2.33;;;0.55;;
68273;SDS011;55104;47.356;19.448;2023-08-08T05:28:16;3.10;;;0.60;;
68273;SDS011;55104;47.356;19.448;2023-08-08T05:31:18;2.13;;;0.57;;
68273;SDS011;55104;47.356;19.448;2023-08-08T05:34:21;4.15;;;0.80;;
68273;SDS011;55104;47.356;19.448;2023-08-08T05:37:24;2.97;;;0.70;;
68273;SDS011;55104;47.356;19.448;2023-08-08T05:40:27;4.05;;;0.80;;
68273;SDS011;55104;47.356;19.448;2023-08-08T05:43:28;4.30;;;0.70;;
68273;SDS011;55104;47.356;19.448;2023-08-08T05:46:31;3.08;;;0.70;;
68273;SDS011;55104;47.356;19.448;2023-08-08T05:49:34;3.13;;;0.90;;
68273;SDS011;55104;47.356;19.448;2023-08-08T05:52:36;3.45;;;0.80;;
68273;SDS011;55104;47.356;19.448;2023-08-08T05:55:40;2.35;;;0.57;;
68273;SDS011;55104;47.356;19.448;2023-08-08T05:58:44;3.77;;;0.77;;
68273;SDS011;55104;47.356;19.448;2023-08-08T06:01:46;4.28;;;0.70;;
68273;SDS011;55104;47.356;19.448;2023-08-08T06:04:48;4.75;;;1.00;;
68273;SDS011;55104;47.356;19.448;2023-08-08T06:07:50;4.78;;;0.70;;
68273;SDS011;55104;47.356;19.448;2023-08-08T06:10:52;4.13;;;0.93;;
68273;SDS011;55104;47.356;19.448;2023-08-08T06:13:54;4.10;;;0.80;;
68273;SDS011;55104;47.356;19.448;2023-08-08T06:16:56;3.40;;;0.60;;
68273;SDS011;55104;47.356;19.448;2023-08-08T06:19:58;4.15;;;1.10;;
68273;SDS011;55104;47.356;19.448;2023-08-08T06:23:00;3.45;;;0.80;;
68273;SDS011;55104;47.356;19.448;2023-08-08T06:26:02;5.45;;;0.90;;
68273;SDS011;55104;47.356;19.448;2023-08-08T06:29:05;3.40;;;0.87;;
68273;SDS011;55104;47.356;19.448;2023-08-08T06:32:07;2.88;;;0.90;;
68273;SDS011;55104;47.356;19.448;2023-08-08T06:35:09;4.05;;;0.77;;
68273;SDS011;55104;47.356;19.448;2023-08-08T06:38:14;2.88;;;0.85;;
68273;SDS011;55104;47.356;19.448;2023-08-08T06:41:16;4.00;;;0.90;;
68273;SDS011;55104;47.356;19.448;2023-08-08T06:44:18;2.73;;;0.60;;
68273;SDS011;55104;47.356;19.448;2023-08-08T06:47:21;5.38;;;0.82;;
68273;SDS011;55104;47.356;19.448;2023-08-08T06:50:23;4.10;;;0.70;;
68273;SDS011;55104;47.356;19.448;2023-08-08T06:53:28;5.35;;;0.90;;
68273;SDS011;55104;47.356;19.448;2023-08-08T06:56:30;3.70;;;1.00;;
68273;SDS011;55104;47.356;19.448;2023-08-08T06:59:32;5.53;;;0.80;;
68273;SDS011;55104;47.356;19.448;2023-08-08T07:02:34;2.55;;;0.70;;
68273;SDS011;55104;47.356;19.448;2023-08-08T07:05:37;4.13;;;0.80;;
68273;SDS011;55104;47.356;19.448;2023-08-08T07:08:41;8.45;;;1.05;;
68273;SDS011;55104;47.356;19.448;2023-08-08T07:11:43;4.13;;;0.80;;
68273;SDS011;55104;47.356;19.448;2023-08-08T07:14:45;2.87;;;0.80;;
68273;SDS011;55104;47.356;19.448;2023-08-08T07:17:47;3.53;;;0.98;;
68273;SDS011;55104;47.356;19.448;2023-08-08T07:20:49;4.13;;;1.00;;
68273;SDS011;55104;47.356;19.448;2023-08-08T07:23:51;3.58;;;0.80;;
68273;SDS011;55104;47.356;19.448;2023-08-08T07:26:53;4.00;;;0.88;;
68273;SDS011;55104;47.356;19.448;2023-08-08T07:29:59;4.67;;;0.80;;
68273;SDS011;55104;47.356;19.448;2023-08-08T07:33:02;3.75;;;0.82;;
68273;SDS011;55104;47.356;19.448;2023-08-08T07:36:05;3.50;;;0.88;;
68273;SDS011;55104;47.356;19.448;2023-08-08T07:39:07;5.10;;;0.80;;
68273;SDS011;55104;47.356;19.448;2023-08-08T07:42:09;3.53;;;0.90;;
68273;SDS011;55104;47.356;19.448;2023-08-08T07:45:12;3.73;;;1.00;;
68273;SDS011;55104;47.356;19.448;2023-08-08T07:48:14;3.40;;;0.95;;
68273;SDS011;55104;47.356;19.448;2023-08-08T07:51:17;3.88;;;1.00;;
68273;SDS011;55104;47.356;19.448;2023-08-08T07:54:19;3.50;;;0.80;;
68273;SDS011;55104;47.356;19.448;2023-08-08T07:57:21;3.97;;;0.90;;
68273;SDS011;55104;47.356;19.448;2023-08-08T08:00:23;4.37;;;1.10;;
68273;SDS011;55104;47.356;19.448;2023-08-08T08:03:26;3.88;;;0.93;;
68273;SDS011;55104;47.356;19.448;2023-08-08T08:06:29;3.35;;;0.75;;
68273;SDS011;55104;47.356;19.448;2023-08-08T08:09:31;3.97;;;1.00;;
68273;SDS011;55104;47.356;19.448;2023-08-08T08:12:33;4.65;;;1.10;;
68273;SDS011;55104;47.356;19.448;2023-08-08T08:15:35;4.27;;;1.00;;
68273;SDS011;55104;47.356;19.448;2023-08-08T08:18:37;3.80;;;1.05;;
68273;SDS011;55104;47.356;19.448;2023-08-08T08:21:39;3.35;;;0.98;;
68273;SDS011;55104;47.356;19.448;2023-08-08T08:24:41;4.63;;;0.93;;
68273;SDS011;55104;47.356;19.448;2023-08-08T08:27:43;3.83;;;1.00;;
68273;SDS011;55104;47.356;19.448;2023-08-08T08:30:45;4.00;;;1.00;;
68273;SDS011;55104;47.356;19.448;2023-08-08T08:33:47;6.50;;;1.20;;
68273;SDS011;55104;47.356;19.448;2023-08-08T08:36:49;4.22;;;0.95;;
68273;SDS011;55104;47.356;19.448;2023-08-08T08:39:51;3.92;;;0.95;;
68273;SDS011;55104;47.356;19.448;2023-08-08T08:42:53;3.13;;;0.90;;
68273;SDS011;55104;47.356;19.448;2023-08-08T08:45:56;4.73;;;0.77;;
68273;SDS011;55104;47.356;19.448;2023-08-08T08:49:02;4.25;;;1.20;;
68273;SDS011;55104;47.356;19.448;2023-08-08T08:52:07;2.95;;;0.85;;
68273;SDS011;55104;47.356;19.448;2023-08-08T08:55:09;4.93;;;1.20;;
68273;SDS011;55104;47.356;19.448;2023-08-08T08:58:13;6.18;;;1.20;;
68273;SDS011;55104;47.356;19.448;2023-08-08T09:01:18;8.50;;;0.90;;
68273;SDS011;55104;47.356;19.448;2023-08-08T09:04:21;4.63;;;1.10;;
68273;SDS011;55104;47.356;19.448;2023-08-08T09:07:23;9.93;;;1.20;;
68273;SDS011;55104;47.356;19.448;2023-08-08T09:10:28;4.63;;;1.00;;
68273;SDS011;55104;47.356;19.448;2023-08-08T09:13:37;4.93;;;1.40;;
68273;SDS011;55104;47.356;19.448;2023-08-08T09:16:42;5.33;;;1.00;;
68273;SDS011;55104;47.356;19.448;2023-08-08T09:19:45;4.63;;;0.90;;
68273;SDS011;55104;47.356;19.448;2023-08-08T09:22:48;2.83;;;0.90;;
68273;SDS011;55104;47.356;19.448;2023-08-08T09:25:50;4.60;;;1.20;;
68273;SDS011;55104;47.356;19.448;2023-08-08T09:28:52;4.10;;;1.13;;
68273;SDS011;55104;47.356;19.448;2023-08-08T09:31:54;3.80;;;0.83;;
68273;SDS011;55104;47.356;19.448;2023-08-08T09:34:57;4.93;;;0.77;;
68273;SDS011;55104;47.356;19.448;2023-08-08T09:38:00;4.80;;;1.13;;
68273;SDS011;55104;47.356;19.448;2023-08-08T09:41:02;3.55;;;0.90;;
68273;SDS011;55104;47.356;19.448;2023-08-08T09:44:04;7.45;;;1.00;;
68273;SDS011;55104;47.356;19.448;2023-08-08T09:47:06;5.33;;;0.90;;
68273;SDS011;55104;47.356;19.448;2023-08-08T09:50:15;4.55;;;0.70;;
68273;SDS011;55104;47.356;19.448;2023-08-08T09:53:18;3.65;;;0.90;;
68273;SDS011;55104;47.356;19.448;2023-08-08T09:56:22;3.15;;;0.95;;
68273;SDS011;55104;47.356;19.448;2023-08-08T09:59:26;2.92;;;0.98;;
68273;SDS011;55104;47.356;19.448;2023-08-08T10:02:28;5.73;;;1.00;;
68273;SDS011;55104;47.356;19.448;2023-08-08T10:05:31;3.78;;;0.90;;
68273;SDS011;55104;47.356;19.448;2023-08-08T10:08:33;4.72;;;0.90;;
68273;SDS011;55104;47.356;19.448;2023-08-08T10:11:35;5.35;;;0.93;;
68273;SDS011;55104;47.356;19.448;2023-08-08T10:14:41;4.80;;;0.82;;
68273;SDS011;55104;47.356;19.448;2023-08-08T10:17:44;5.57;;;1.10;;
68273;SDS011;55104;47.356;19.448;2023-08-08T10:20:46;4.15;;;0.75;;
68273;SDS011;55104;47.356;19.448;2023-08-08T10:23:49;4.20;;;0.98;;
68273;SDS011;55104;47.356;19.448;2023-08-08T10:27:02;4.63;;;0.98;;
68273;SDS011;55104;47.356;19.448;2023-08-08T10:30:07;4.90;;;0.75;;
68273;SDS011;55104;47.356;19.448;2023-08-08T10:33:22;5.20;;;0.70;;
68273;SDS011;55104;47.356;19.448;2023-08-08T10:36:42;6.43;;;1.20;;
68273;SDS011;55104;47.356;19.448;2023-08-08T10:42:57;4.72;;;1.00;;
68273;SDS011;55104;47.356;19.448;2023-08-08T10:46:03;4.05;;;0.93;;
68273;SDS011;55104;47.356;19.448;2023-08-08T10:49:15;3.40;;;0.77;;
68273;SDS011;55104;47.356;19.448;2023-08-08T10:52:18;4.32;;;0.90;;
68273;SDS011;55104;47.356;19.448;2023-08-08T10:55:30;3.15;;;0.88;;
68273;SDS011;55104;47.356;19.448;2023-08-08T10:58:38;6.30;;;0.90;;
68273;SDS011;55104;47.356;19.448;2023-08-08T11:01:42;5.97;;;1.10;;
68273;SDS011;55104;47.356;19.448;2023-08-08T11:04:48;2.53;;;0.70;;
68273;SDS011;55104;47.356;19.448;2023-08-08T11:07:51;3.03;;;0.90;;
68273;SDS011;55104;47.356;19.448;2023-08-08T11:10:54;4.28;;;1.27;;
68273;SDS011;55104;47.356;19.448;2023-08-08T11:13:56;4.30;;;1.02;;
68273;SDS011;55104;47.356;19.448;2023-08-08T11:16:58;4.57;;;1.20;;
68273;SDS011;55104;47.356;19.448;2023-08-08T11:20:00;3.93;;;0.77;;
68273;SDS011;55104;47.356;19.448;2023-08-08T11:23:03;4.65;;;0.82;;
68273;SDS011;55104;47.356;19.448;2023-08-08T11:26:12;4.40;;;1.10;;
68273;SDS011;55104;47.356;19.448;2023-08-08T11:29:18;2.55;;;0.70;;
68273;SDS011;55104;47.356;19.448;2023-08-08T11:32:20;3.78;;;1.13;;
68273;SDS011;55104;47.356;19.448;2023-08-08T11:35:22;4.33;;;1.10;;
68273;SDS011;55104;47.356;19.448;2023-08-08T11:38:26;4.95;;;1.00;;
68273;SDS011;55104;47.356;19.448;2023-08-08T11:41:28;3.72;;;0.82;;
68273;SDS011;55104;47.356;19.448;2023-08-08T11:44:30;6.32;;;1.20;;
68273;SDS011;55104;47.356;19.448;2023-08-08T11:47:32;4.22;;;0.95;;
68273;SDS011;55104;47.356;19.448;2023-08-08T11:50:37;3.63;;;0.90;;
68273;SDS011;55104;47.356;19.448;2023-08-08T11:53:51;5.25;;;0.85;;
68273;SDS011;55104;47.356;19.448;2023-08-08T11:56:54;5.53;;;1.10;;
68273;SDS011;55104;47.356;19.448;2023-08-08T11:59:56;2.42;;;0.70;;
68273;SDS011;55104;47.356;19.448;2023-08-08T12:03:00;4.63;;;0.88;;
68273;SDS011;55104;47.356;19.448;2023-08-08T12:06:11;4.73;;;1.20;;
68273;SDS011;55104;47.356;19.448;2023-08-08T12:09:17;3.25;;;0.88;;
68273;SDS011;55104;47.356;19.448;2023-08-08T12:12:19;5.28;;;1.02;;
68273;SDS011;55104;47.356;19.448;2023-08-08T12:15:21;4.20;;;0.80;;
68273;SDS011;55104;47.356;19.448;2023-08-08T12:18:23;4.50;;;1.05;;
68273;SDS011;55104;47.356;19.448;2023-08-08T12:21:25;4.17;;;1.47;;
68273;SDS011;55104;47.356;19.448;2023-08-08T12:24:27;6.22;;;1.13;;
68273;SDS011;55104;47.356;19.448;2023-08-08T12:27:30;4.38;;;1.00;;
68273;SDS011;55104;47.356;19.448;2023-08-08T12:30:32;6.15;;;1.00;;
68273;SDS011;55104;47.356;19.448;2023-08-08T12:33:34;4.70;;;1.10;;
68273;SDS011;55104;47.356;19.448;2023-08-08T12:36:36;5.10;;;0.90;;
68273;SDS011;55104;47.356;19.448;2023-08-08T12:39:38;5.10;;;1.00;;
68273;SDS011;55104;47.356;19.448;2023-08-08T12:42:40;3.10;;;0.80;;
68273;SDS011;55104;47.356;19.448;2023-08-08T12:45:44;4.97;;;1.10;;
68273;SDS011;55104;47.356;19.448;2023-08-08T12:48:47;4.85;;;1.25;;
68273;SDS011;55104;47.356;19.448;2023-08-08T12:51:49;3.33;;;1.00;;
68273;SDS011;55104;47.356;19.448;2023-08-08T12:54:52;3.78;;;0.80;;
68273;SDS011;55104;47.356;19.448;2023-08-08T12:57:54;3.15;;;0.85;;
68273;SDS011;55104;47.356;19.448;2023-08-08T13:00:57;4.68;;;1.08;;
68273;SDS011;55104;47.356;19.448;2023-08-08T13:03:59;4.82;;;0.90;;
68273;SDS011;55104;47.356;19.448;2023-08-08T13:07:19;3.77;;;0.87;;
68273;SDS011;55104;47.356;19.448;2023-08-08T13:10:21;4.05;;;1.10;;
68273;SDS011;55104;47.356;19.448;2023-08-08T13:13:24;4.78;;;1.10;;
68273;SDS011;55104;47.356;19.448;2023-08-08T13:16:27;3.38;;;0.82;;
68273;SDS011;55104;47.356;19.448;2023-08-08T13:19:30;3.95;;;0.80;;
68273;SDS011;55104;47.356;19.448;2023-08-08T13:22:32;2.67;;;0.70;;
68273;SDS011;55104;47.356;19.448;2023-08-08T13:25:34;4.13;;;1.08;;
68273;SDS011;55104;47.356;19.448;2023-08-08T13:28:36;3.05;;;0.80;;
68273;SDS011;55104;47.356;19.448;2023-08-08T13:31:40;3.28;;;0.90;;
68273;SDS011;55104;47.356;19.448;2023-08-08T13:34:42;3.72;;;0.88;;
68273;SDS011;55104;47.356;19.448;2023-08-08T13:37:44;3.93;;;0.70;;
68273;SDS011;55104;47.356;19.448;2023-08-08T13:40:47;4.47;;;0.90;;
68273;SDS011;55104;47.356;19.448;2023-08-08T13:43:49;4.53;;;1.10;;
68273;SDS011;55104;47.356;19.448;2023-08-08T13:46:51;5.03;;;0.90;;
68273;SDS011;55104;47.356;19.448;2023-08-08T13:49:53;3.60;;;0.90;;
68273;SDS011;55104;47.356;19.448;2023-08-08T13:52:55;3.93;;;0.73;;
68273;SDS011;55104;47.356;19.448;2023-08-08T13:55:58;4.18;;;1.10;;
68273;SDS011;55104;47.356;19.448;2023-08-08T13:59:00;4.25;;;1.15;;
68273;SDS011;55104;47.356;19.448;2023-08-08T14:02:02;5.53;;;1.40;;
68273;SDS011;55104;47.356;19.448;2023-08-08T14:05:05;5.30;;;1.17;;
68273;SDS011;55104;47.356;19.448;2023-08-08T14:08:08;4.30;;;1.20;;
68273;SDS011;55104;47.356;19.448;2023-08-08T14:11:11;3.08;;;0.80;;
68273;SDS011;55104;47.356;19.448;2023-08-08T14:14:13;2.42;;;0.73;;
68273;SDS011;55104;47.356;19.448;2023-08-08T14:17:15;4.85;;;1.10;;
68273;SDS011;55104;47.356;19.448;2023-08-08T14:20:17;3.80;;;1.00;;
68273;SDS011;55104;47.356;19.448;2023-08-08T14:23:20;4.40;;;1.00;;
68273;SDS011;55104;47.356;19.448;2023-08-08T14:26:23;4.28;;;1.13;;
68273;SDS011;55104;47.356;19.448;2023-08-08T14:29:25;4.28;;;1.23;;
68273;SDS011;55104;47.356;19.448;2023-08-08T14:32:27;4.68;;;0.93;;
68273;SDS011;55104;47.356;19.448;2023-08-08T14:35:29;6.57;;;1.23;;
68273;SDS011;55104;47.356;19.448;2023-08-08T14:38:34;3.93;;;0.90;;
68273;SDS011;55104;47.356;19.448;2023-08-08T14:41:37;4.43;;;1.30;;
68273;SDS011;55104;47.356;19.448;2023-08-08T14:44:39;4.93;;;0.90;;
68273;SDS011;55104;47.356;19.448;2023-08-08T14:47:41;7.32;;;0.88;;
68273;SDS011;55104;47.356;19.448;2023-08-08T14:50:43;4.10;;;0.98;;
68273;SDS011;55104;47.356;19.448;2023-08-08T14:53:45;6.50;;;1.63;;
68273;SDS011;55104;47.356;19.448;2023-08-08T14:56:47;4.82;;;0.93;;
68273;SDS011;55104;47.356;19.448;2023-08-08T14:59:49;3.65;;;1.00;;
68273;SDS011;55104;47.356;19.448;2023-08-08T15:02:52;3.92;;;1.00;;
68273;SDS011;55104;47.356;19.448;2023-08-08T15:05:54;3.30;;;0.90;;
68273;SDS011;55104;47.356;19.448;2023-08-08T15:08:56;4.20;;;0.97;;
68273;SDS011;55104;47.356;19.448;2023-08-08T15:11:58;3.45;;;0.80;;
68273;SDS011;55104;47.356;19.448;2023-08-08T15:15:00;4.22;;;0.90;;
68273;SDS011;55104;47.356;19.448;2023-08-08T15:18:03;3.08;;;0.80;;
68273;SDS011;55104;47.356;19.448;2023-08-08T15:21:05;4.22;;;0.75;;
68273;SDS011;55104;47.356;19.448;2023-08-08T15:24:07;4.13;;;0.90;;
68273;SDS011;55104;47.356;19.448;2023-08-08T15:27:11;4.90;;;0.70;;
68273;SDS011;55104;47.356;19.448;2023-08-08T15:30:13;3.83;;;1.05;;
68273;SDS011;55104;47.356;19.448;2023-08-08T15:33:15;3.53;;;0.85;;
68273;SDS011;55104;47.356;19.448;2023-08-08T15:36:17;3.75;;;0.90;;
68273;SDS011;55104;47.356;19.448;2023-08-08T15:39:20;3.77;;;0.90;;
68273;SDS011;55104;47.356;19.448;2023-08-08T15:42:23;3.95;;;0.90;;
68273;SDS011;55104;47.356;19.448;2023-08-08T15:45:24;4.30;;;0.80;;
68273;SDS011;55104;47.356;19.448;2023-08-08T15:48:27;3.22;;;0.70;;
68273;SDS011;55104;47.356;19.448;2023-08-08T15:51:29;4.70;;;0.98;;
68273;SDS011;55104;47.356;19.448;2023-08-08T15:54:31;3.83;;;1.00;;
68273;SDS011;55104;47.356;19.448;2023-08-08T15:57:35;4.55;;;0.90;;
68273;SDS011;55104;47.356;19.448;2023-08-08T16:00:38;3.17;;;0.85;;
68273;SDS011;55104;47.356;19.448;2023-08-08T16:03:40;3.22;;;0.77;;
68273;SDS011;55104;47.356;19.448;2023-08-08T16:06:42;3.90;;;0.80;;
68273;SDS011;55104;47.356;19.448;2023-08-08T16:09:46;3.53;;;0.83;;
68273;SDS011;55104;47.356;19.448;2023-08-08T16:12:49;3.08;;;0.70;;
68273;SDS011;55104;47.356;19.448;2023-08-08T16:15:51;3.85;;;1.10;;
68273;SDS011;55104;47.356;19.448;2023-08-08T16:18:53;6.60;;;1.10;;
68273;SDS011;55104;47.356;19.448;2023-08-08T16:21:55;4.38;;;0.90;;
68273;SDS011;55104;47.356;19.448;2023-08-08T16:24:57;3.40;;;0.87;;
68273;SDS011;55104;47.356;19.448;2023-08-08T16:27:59;3.05;;;0.73;;
68273;SDS011;55104;47.356;19.448;2023-08-08T16:31:02;3.35;;;0.88;;
68273;SDS011;55104;47.356;19.448;2023-08-08T16:34:04;3.00;;;0.70;;
68273;SDS011;55104;47.356;19.448;2023-08-08T16:37:06;3.58;;;0.80;;
68273;SDS011;55104;47.356;19.448;2023-08-08T16:40:09;4.67;;;0.97;;
68273;SDS011;55104;47.356;19.448;2023-08-08T16:43:11;3.92;;;0.77;;
68273;SDS011;55104;47.356;19.448;2023-08-08T16:46:14;5.15;;;0.65;;
68273;SDS011;55104;47.356;19.448;2023-08-08T16:49:16;4.05;;;0.70;;
68273;SDS011;55104;47.356;19.448;2023-08-08T16:52:18;4.07;;;0.90;;
68273;SDS011;55104;47.356;19.448;2023-08-08T16:55:20;6.93;;;1.37;;
68273;SDS011;55104;47.356;19.448;2023-08-08T16:58:23;6.05;;;0.88;;
68273;SDS011;55104;47.356;19.448;2023-08-08T17:01:26;8.38;;;0.88;;
68273;SDS011;55104;47.356;19.448;2023-08-08T17:04:28;5.35;;;1.00;;
68273;SDS011;55104;47.356;19.448;2023-08-08T17:07:30;4.97;;;1.00;;
68273;SDS011;55104;47.356;19.448;2023-08-08T17:10:32;4.53;;;1.00;;
68273;SDS011;55104;47.356;19.448;2023-08-08T17:13:35;6.25;;;1.40;;
68273;SDS011;55104;47.356;19.448;2023-08-08T17:16:37;3.25;;;0.88;;
68273;SDS011;55104;47.356;19.448;2023-08-08T17:19:40;5.68;;;1.40;;
68273;SDS011;55104;47.356;19.448;2023-08-08T17:22:42;3.13;;;0.80;;
68273;SDS011;55104;47.356;19.448;2023-08-08T17:25:44;3.90;;;1.07;;
68273;SDS011;55104;47.356;19.448;2023-08-08T17:28:46;4.47;;;0.90;;
68273;SDS011;55104;47.356;19.448;2023-08-08T17:31:50;8.75;;;1.10;;
68273;SDS011;55104;47.356;19.448;2023-08-08T17:34:52;3.17;;;0.80;;
68273;SDS011;55104;47.356;19.448;2023-08-08T17:37:55;6.68;;;1.30;;
68273;SDS011;55104;47.356;19.448;2023-08-08T17:40:57;8.60;;;2.17;;
68273;SDS011;55104;47.356;19.448;2023-08-08T17:43:59;9.43;;;2.78;;
68273;SDS011;55104;47.356;19.448;2023-08-08T17:47:01;9.43;;;3.58;;
68273;SDS011;55104;47.356;19.448;2023-08-08T17:50:03;11.88;;;3.05;;
68273;SDS011;55104;47.356;19.448;2023-08-08T17:53:06;8.20;;;2.50;;
68273;SDS011;55104;47.356;19.448;2023-08-08T17:56:08;7.37;;;1.80;;
68273;SDS011;55104;47.356;19.448;2023-08-08T17:59:10;7.88;;;1.95;;
68273;SDS011;55104;47.356;19.448;2023-08-08T18:02:13;7.10;;;2.33;;
68273;SDS011;55104;47.356;19.448;2023-08-08T18:05:15;10.00;;;2.10;;
68273;SDS011;55104;47.356;19.448;2023-08-08T18:08:17;6.35;;;2.20;;